Terminal Aerodrome Forecast
Issued by NWS New Orleans/Baton Rouge, LA

Home | Current Version | Previous Version | Text Only | Print | Product List | Glossary On
Versions: 1 2 3 4 5 6 7 8 9 10 11 12 13 14 15
000
FTUS44 KLIX 232320
TAFBTR
TAF
KBTR 232320Z 2400/2424 VRB03KT P6SM SCT025 BKN110
     FM241500 VRB03KT P6SM FEW020 SCT100 PROB30 2415/2420 4SM TSRA
      BKN025CB
     FM242000 VRB03KT P6SM VCTS SCT030CB BKN090=

USA.gov is the U.S. government's official web portal to all federal, state and local government web resources and services.